sensor_id;sensor_type;location;lat;lon;timestamp;P1;durP1;ratioP1;P2;durP2;ratioP2
11066;SDS011;29763;50.904;5.530;2023-10-13T00:02:19;14.93;;;11.93;;
11066;SDS011;29763;50.904;5.530;2023-10-13T00:05:04;15.68;;;11.05;;
11066;SDS011;29763;50.904;5.530;2023-10-13T00:07:33;13.85;;;11.80;;
11066;SDS011;29763;50.904;5.530;2023-10-13T00:09:59;14.38;;;11.77;;
11066;SDS011;29763;50.904;5.530;2023-10-13T00:12:25;14.30;;;11.07;;
11066;SDS011;29763;50.904;5.530;2023-10-13T00:14:56;13.52;;;11.88;;
11066;SDS011;29763;50.904;5.530;2023-10-13T00:17:29;14.02;;;11.25;;
11066;SDS011;29763;50.904;5.530;2023-10-13T00:19:57;15.27;;;11.82;;
11066;SDS011;29763;50.904;5.530;2023-10-13T00:22:28;14.50;;;11.68;;
11066;SDS011;29763;50.904;5.530;2023-10-13T00:24:58;14.38;;;11.68;;
11066;SDS011;29763;50.904;5.530;2023-10-13T00:27:28;14.55;;;11.98;;
11066;SDS011;29763;50.904;5.530;2023-10-13T00:30:14;15.55;;;11.88;;
11066;SDS011;29763;50.904;5.530;2023-10-13T00:32:43;17.00;;;12.50;;
11066;SDS011;29763;50.904;5.530;2023-10-13T00:35:11;16.45;;;11.40;;
11066;SDS011;29763;50.904;5.530;2023-10-13T00:37:55;16.60;;;12.20;;
11066;SDS011;29763;50.904;5.530;2023-10-13T00:40:23;16.05;;;11.70;;
11066;SDS011;29763;50.904;5.530;2023-10-13T00:43:14;17.02;;;13.40;;
11066;SDS011;29763;50.904;5.530;2023-10-13T00:45:52;15.30;;;11.90;;
11066;SDS011;29763;50.904;5.530;2023-10-13T00:48:44;16.00;;;12.15;;
11066;SDS011;29763;50.904;5.530;2023-10-13T00:51:28;15.88;;;11.90;;
11066;SDS011;29763;50.904;5.530;2023-10-13T00:54:03;13.63;;;11.57;;
11066;SDS011;29763;50.904;5.530;2023-10-13T00:56:41;12.85;;;10.95;;
11066;SDS011;29763;50.904;5.530;2023-10-13T00:59:20;13.40;;;11.00;;
11066;SDS011;29763;50.904;5.530;2023-10-13T01:01:50;13.55;;;11.18;;
11066;SDS011;29763;50.904;5.530;2023-10-13T01:04:20;16.38;;;11.52;;
11066;SDS011;29763;50.904;5.530;2023-10-13T01:06:49;12.55;;;10.65;;
11066;SDS011;29763;50.904;5.530;2023-10-13T01:09:16;11.75;;;10.52;;
11066;SDS011;29763;50.904;5.530;2023-10-13T01:11:50;12.70;;;9.95;;
11066;SDS011;29763;50.904;5.530;2023-10-13T01:14:20;12.10;;;10.45;;
11066;SDS011;29763;50.904;5.530;2023-10-13T01:16:48;12.35;;;10.40;;
11066;SDS011;29763;50.904;5.530;2023-10-13T01:19:18;12.45;;;10.50;;
11066;SDS011;29763;50.904;5.530;2023-10-13T01:21:51;14.18;;;10.98;;
11066;SDS011;29763;50.904;5.530;2023-10-13T01:24:26;12.63;;;10.93;;
11066;SDS011;29763;50.904;5.530;2023-10-13T01:26:56;15.02;;;11.50;;
11066;SDS011;29763;50.904;5.530;2023-10-13T01:29:56;15.45;;;11.13;;
11066;SDS011;29763;50.904;5.530;2023-10-13T01:32:32;14.38;;;11.82;;
11066;SDS011;29763;50.904;5.530;2023-10-13T01:34:58;13.18;;;10.30;;
11066;SDS011;29763;50.904;5.530;2023-10-13T01:37:33;13.32;;;11.90;;
11066;SDS011;29763;50.904;5.530;2023-10-13T01:39:59;14.05;;;10.70;;
11066;SDS011;29763;50.904;5.530;2023-10-13T01:42:25;14.20;;;10.88;;
11066;SDS011;29763;50.904;5.530;2023-10-13T01:44:59;18.35;;;12.40;;
11066;SDS011;29763;50.904;5.530;2023-10-13T01:47:31;18.17;;;12.73;;
11066;SDS011;29763;50.904;5.530;2023-10-13T01:49:58;16.05;;;12.15;;
11066;SDS011;29763;50.904;5.530;2023-10-13T01:52:40;13.98;;;11.38;;
11066;SDS011;29763;50.904;5.530;2023-10-13T01:55:07;15.43;;;12.93;;
11066;SDS011;29763;50.904;5.530;2023-10-13T01:57:37;13.52;;;12.00;;
11066;SDS011;29763;50.904;5.530;2023-10-13T02:00:03;14.90;;;11.55;;
11066;SDS011;29763;50.904;5.530;2023-10-13T02:02:45;13.38;;;11.75;;
11066;SDS011;29763;50.904;5.530;2023-10-13T02:05:12;16.02;;;11.85;;
11066;SDS011;29763;50.904;5.530;2023-10-13T02:07:42;15.73;;;12.38;;
11066;SDS011;29763;50.904;5.530;2023-10-13T02:10:11;16.90;;;12.00;;
11066;SDS011;29763;50.904;5.530;2023-10-13T02:12:38;15.00;;;12.13;;
11066;SDS011;29763;50.904;5.530;2023-10-13T02:15:11;13.93;;;11.40;;
11066;SDS011;29763;50.904;5.530;2023-10-13T02:17:51;15.35;;;11.68;;
11066;SDS011;29763;50.904;5.530;2023-10-13T02:20:20;15.02;;;12.38;;
11066;SDS011;29763;50.904;5.530;2023-10-13T02:22:50;14.73;;;11.90;;
11066;SDS011;29763;50.904;5.530;2023-10-13T02:25:16;13.80;;;11.38;;
11066;SDS011;29763;50.904;5.530;2023-10-13T02:28:00;15.68;;;12.15;;
11066;SDS011;29763;50.904;5.530;2023-10-13T02:30:36;13.50;;;11.77;;
11066;SDS011;29763;50.904;5.530;2023-10-13T02:33:10;15.10;;;12.27;;
11066;SDS011;29763;50.904;5.530;2023-10-13T02:35:38;15.30;;;12.20;;
11066;SDS011;29763;50.904;5.530;2023-10-13T02:38:09;15.05;;;11.93;;
11066;SDS011;29763;50.904;5.530;2023-10-13T02:40:40;17.38;;;12.50;;
11066;SDS011;29763;50.904;5.530;2023-10-13T02:43:09;15.82;;;12.13;;
11066;SDS011;29763;50.904;5.530;2023-10-13T02:45:39;14.15;;;11.32;;
11066;SDS011;29763;50.904;5.530;2023-10-13T02:48:06;15.52;;;11.32;;
11066;SDS011;29763;50.904;5.530;2023-10-13T02:50:39;12.82;;;11.25;;
11066;SDS011;29763;50.904;5.530;2023-10-13T02:53:10;15.05;;;11.60;;
11066;SDS011;29763;50.904;5.530;2023-10-13T02:55:48;13.45;;;11.77;;
11066;SDS011;29763;50.904;5.530;2023-10-13T02:58:18;13.70;;;11.60;;
11066;SDS011;29763;50.904;5.530;2023-10-13T03:01:03;14.63;;;10.98;;
11066;SDS011;29763;50.904;5.530;2023-10-13T03:03:50;14.05;;;11.63;;
11066;SDS011;29763;50.904;5.530;2023-10-13T03:06:35;14.13;;;11.55;;
11066;SDS011;29763;50.904;5.530;2023-10-13T03:09:02;13.77;;;11.45;;
11066;SDS011;29763;50.904;5.530;2023-10-13T03:11:40;14.43;;;11.25;;
11066;SDS011;29763;50.904;5.530;2023-10-13T03:17:02;13.70;;;11.55;;
11066;SDS011;29763;50.904;5.530;2023-10-13T03:19:30;15.25;;;11.10;;
11066;SDS011;29763;50.904;5.530;2023-10-13T03:22:04;16.13;;;10.60;;
11066;SDS011;29763;50.904;5.530;2023-10-13T03:24:38;13.73;;;10.73;;
11066;SDS011;29763;50.904;5.530;2023-10-13T03:27:18;16.75;;;11.50;;
11066;SDS011;29763;50.904;5.530;2023-10-13T03:29:54;12.77;;;10.98;;
11066;SDS011;29763;50.904;5.530;2023-10-13T03:32:20;15.38;;;11.05;;
11066;SDS011;29763;50.904;5.530;2023-10-13T03:34:51;13.98;;;10.68;;
11066;SDS011;29763;50.904;5.530;2023-10-13T03:37:18;16.02;;;11.27;;
11066;SDS011;29763;50.904;5.530;2023-10-13T03:40:06;14.60;;;10.63;;
11066;SDS011;29763;50.904;5.530;2023-10-13T03:42:52;12.18;;;9.93;;
11066;SDS011;29763;50.904;5.530;2023-10-13T03:48:36;11.80;;;10.25;;
11066;SDS011;29763;50.904;5.530;2023-10-13T03:51:24;14.23;;;9.98;;
11066;SDS011;29763;50.904;5.530;2023-10-13T03:53:56;13.25;;;9.73;;
11066;SDS011;29763;50.904;5.530;2023-10-13T03:56:27;12.23;;;9.57;;
11066;SDS011;29763;50.904;5.530;2023-10-13T03:59:04;11.18;;;9.40;;
11066;SDS011;29763;50.904;5.530;2023-10-13T04:01:47;16.40;;;10.45;;
11066;SDS011;29763;50.904;5.530;2023-10-13T04:04:25;12.98;;;9.73;;
11066;SDS011;29763;50.904;5.530;2023-10-13T04:07:13;15.38;;;9.75;;
11066;SDS011;29763;50.904;5.530;2023-10-13T04:09:51;12.85;;;9.82;;
11066;SDS011;29763;50.904;5.530;2023-10-13T04:12:38;14.80;;;9.63;;
11066;SDS011;29763;50.904;5.530;2023-10-13T04:15:22;11.77;;;9.95;;
11066;SDS011;29763;50.904;5.530;2023-10-13T04:17:56;14.43;;;9.60;;
11066;SDS011;29763;50.904;5.530;2023-10-13T04:20:22;13.55;;;9.80;;
11066;SDS011;29763;50.904;5.530;2023-10-13T04:23:11;13.65;;;9.23;;
11066;SDS011;29763;50.904;5.530;2023-10-13T04:25:45;14.35;;;9.40;;
11066;SDS011;29763;50.904;5.530;2023-10-13T04:28:12;12.50;;;9.38;;
11066;SDS011;29763;50.904;5.530;2023-10-13T04:30:49;15.40;;;9.57;;
11066;SDS011;29763;50.904;5.530;2023-10-13T04:33:26;15.77;;;10.05;;
11066;SDS011;29763;50.904;5.530;2023-10-13T04:36:16;13.82;;;9.75;;
11066;SDS011;29763;50.904;5.530;2023-10-13T04:39:01;13.32;;;9.35;;
11066;SDS011;29763;50.904;5.530;2023-10-13T04:41:37;11.35;;;9.10;;
11066;SDS011;29763;50.904;5.530;2023-10-13T04:44:11;12.20;;;8.32;;
11066;SDS011;29763;50.904;5.530;2023-10-13T04:46:57;13.20;;;7.88;;
11066;SDS011;29763;50.904;5.530;2023-10-13T04:49:44;13.50;;;6.93;;
11066;SDS011;29763;50.904;5.530;2023-10-13T04:52:12;11.30;;;6.93;;
11066;SDS011;29763;50.904;5.530;2023-10-13T04:54:55;12.85;;;6.70;;
11066;SDS011;29763;50.904;5.530;2023-10-13T04:57:24;10.60;;;6.55;;
11066;SDS011;29763;50.904;5.530;2023-10-13T05:00:00;14.00;;;7.63;;
11066;SDS011;29763;50.904;5.530;2023-10-13T05:02:49;9.50;;;6.57;;
11066;SDS011;29763;50.904;5.530;2023-10-13T05:05:24;11.35;;;6.88;;
11066;SDS011;29763;50.904;5.530;2023-10-13T05:07:50;12.75;;;6.97;;
11066;SDS011;29763;50.904;5.530;2023-10-13T05:10:35;12.00;;;7.13;;
11066;SDS011;29763;50.904;5.530;2023-10-13T05:13:20;12.13;;;7.30;;
11066;SDS011;29763;50.904;5.530;2023-10-13T05:16:05;15.07;;;7.60;;
11066;SDS011;29763;50.904;5.530;2023-10-13T05:18:51;11.93;;;7.15;;
11066;SDS011;29763;50.904;5.530;2023-10-13T05:21:41;11.07;;;6.80;;
11066;SDS011;29763;50.904;5.530;2023-10-13T05:24:28;12.95;;;7.22;;
11066;SDS011;29763;50.904;5.530;2023-10-13T05:27:12;13.27;;;7.75;;
11066;SDS011;29763;50.904;5.530;2023-10-13T05:29:59;13.27;;;7.15;;
11066;SDS011;29763;50.904;5.530;2023-10-13T05:32:44;11.45;;;6.50;;
11066;SDS011;29763;50.904;5.530;2023-10-13T05:35:30;14.32;;;7.18;;
11066;SDS011;29763;50.904;5.530;2023-10-13T05:38:15;12.52;;;6.78;;
11066;SDS011;29763;50.904;5.530;2023-10-13T05:41:00;11.52;;;7.25;;
11066;SDS011;29763;50.904;5.530;2023-10-13T05:43:49;13.52;;;7.22;;
11066;SDS011;29763;50.904;5.530;2023-10-13T05:46:39;10.27;;;6.93;;
11066;SDS011;29763;50.904;5.530;2023-10-13T05:49:25;10.63;;;6.45;;
11066;SDS011;29763;50.904;5.530;2023-10-13T05:52:10;12.15;;;6.55;;
11066;SDS011;29763;50.904;5.530;2023-10-13T05:54:55;15.90;;;6.97;;
11066;SDS011;29763;50.904;5.530;2023-10-13T05:57:40;12.82;;;7.20;;
11066;SDS011;29763;50.904;5.530;2023-10-13T06:00:24;11.65;;;6.88;;
11066;SDS011;29763;50.904;5.530;2023-10-13T06:03:09;10.10;;;6.40;;
11066;SDS011;29763;50.904;5.530;2023-10-13T06:05:59;11.35;;;7.05;;
11066;SDS011;29763;50.904;5.530;2023-10-13T06:08:50;12.43;;;7.00;;
11066;SDS011;29763;50.904;5.530;2023-10-13T06:11:35;10.30;;;7.25;;
11066;SDS011;29763;50.904;5.530;2023-10-13T06:14:19;13.27;;;7.03;;
11066;SDS011;29763;50.904;5.530;2023-10-13T06:17:03;12.93;;;7.43;;
11066;SDS011;29763;50.904;5.530;2023-10-13T06:19:51;13.27;;;7.38;;
11066;SDS011;29763;50.904;5.530;2023-10-13T06:22:37;13.60;;;7.25;;
11066;SDS011;29763;50.904;5.530;2023-10-13T06:25:23;13.18;;;7.32;;
11066;SDS011;29763;50.904;5.530;2023-10-13T06:28:08;13.25;;;7.25;;
11066;SDS011;29763;50.904;5.530;2023-10-13T06:30:56;12.60;;;7.30;;
11066;SDS011;29763;50.904;5.530;2023-10-13T06:33:23;12.68;;;7.15;;
11066;SDS011;29763;50.904;5.530;2023-10-13T06:36:02;11.40;;;7.28;;
11066;SDS011;29763;50.904;5.530;2023-10-13T06:38:35;10.55;;;6.85;;
11066;SDS011;29763;50.904;5.530;2023-10-13T06:41:02;14.02;;;7.32;;
11066;SDS011;29763;50.904;5.530;2023-10-13T06:43:47;14.35;;;7.25;;
11066;SDS011;29763;50.904;5.530;2023-10-13T06:46:28;15.30;;;7.20;;
11066;SDS011;29763;50.904;5.530;2023-10-13T06:48:55;11.52;;;7.22;;
11066;SDS011;29763;50.904;5.530;2023-10-13T06:51:41;14.25;;;7.15;;
11066;SDS011;29763;50.904;5.530;2023-10-13T06:54:18;12.40;;;6.97;;
11066;SDS011;29763;50.904;5.530;2023-10-13T06:56:45;12.35;;;6.75;;
11066;SDS011;29763;50.904;5.530;2023-10-13T06:59:11;12.25;;;7.43;;
11066;SDS011;29763;50.904;5.530;2023-10-13T07:01:41;11.13;;;6.65;;
11066;SDS011;29763;50.904;5.530;2023-10-13T07:04:13;8.73;;;6.28;;
11066;SDS011;29763;50.904;5.530;2023-10-13T07:06:40;11.50;;;6.45;;
11066;SDS011;29763;50.904;5.530;2023-10-13T07:09:26;13.88;;;6.38;;
11066;SDS011;29763;50.904;5.530;2023-10-13T07:12:04;15.52;;;6.50;;
11066;SDS011;29763;50.904;5.530;2023-10-13T07:14:45;12.60;;;6.45;;
11066;SDS011;29763;50.904;5.530;2023-10-13T07:17:17;11.13;;;6.20;;
11066;SDS011;29763;50.904;5.530;2023-10-13T07:19:50;9.65;;;6.03;;
11066;SDS011;29763;50.904;5.530;2023-10-13T07:22:24;12.20;;;6.20;;
11066;SDS011;29763;50.904;5.530;2023-10-13T07:24:52;11.57;;;6.07;;
11066;SDS011;29763;50.904;5.530;2023-10-13T07:29:55;11.30;;;6.00;;
11066;SDS011;29763;50.904;5.530;2023-10-13T07:32:25;8.23;;;5.60;;
11066;SDS011;29763;50.904;5.530;2023-10-13T07:34:54;15.85;;;6.40;;
11066;SDS011;29763;50.904;5.530;2023-10-13T07:37:24;13.25;;;6.00;;
11066;SDS011;29763;50.904;5.530;2023-10-13T07:39:54;9.82;;;5.93;;
11066;SDS011;29763;50.904;5.530;2023-10-13T07:42:23;10.68;;;5.63;;
11066;SDS011;29763;50.904;5.530;2023-10-13T07:44:57;12.95;;;6.10;;
11066;SDS011;29763;50.904;5.530;2023-10-13T07:47:25;12.68;;;6.18;;
11066;SDS011;29763;50.904;5.530;2023-10-13T07:49:53;10.70;;;5.72;;
11066;SDS011;29763;50.904;5.530;2023-10-13T07:52:22;10.00;;;5.75;;
11066;SDS011;29763;50.904;5.530;2023-10-13T07:54:48;14.02;;;5.60;;
11066;SDS011;29763;50.904;5.530;2023-10-13T07:57:35;8.80;;;5.63;;
11066;SDS011;29763;50.904;5.530;2023-10-13T08:00:23;9.82;;;5.80;;
11066;SDS011;29763;50.904;5.530;2023-10-13T08:03:08;12.15;;;5.65;;
11066;SDS011;29763;50.904;5.530;2023-10-13T08:05:54;15.10;;;6.22;;
11066;SDS011;29763;50.904;5.530;2023-10-13T08:08:23;8.10;;;5.53;;
11066;SDS011;29763;50.904;5.530;2023-10-13T08:11:13;8.43;;;5.82;;
11066;SDS011;29763;50.904;5.530;2023-10-13T08:13:51;12.18;;;6.00;;
11066;SDS011;29763;50.904;5.530;2023-10-13T08:16:24;9.70;;;5.70;;
11066;SDS011;29763;50.904;5.530;2023-10-13T08:19:12;10.13;;;5.72;;
11066;SDS011;29763;50.904;5.530;2023-10-13T08:21:40;11.85;;;6.32;;
11066;SDS011;29763;50.904;5.530;2023-10-13T08:24:14;9.25;;;5.60;;
11066;SDS011;29763;50.904;5.530;2023-10-13T08:26:40;14.23;;;6.30;;
11066;SDS011;29763;50.904;5.530;2023-10-13T08:29:32;9.00;;;5.63;;
11066;SDS011;29763;50.904;5.530;2023-10-13T08:32:17;12.98;;;6.25;;
11066;SDS011;29763;50.904;5.530;2023-10-13T08:35:01;9.40;;;6.10;;
11066;SDS011;29763;50.904;5.530;2023-10-13T08:37:31;11.65;;;5.85;;
11066;SDS011;29763;50.904;5.530;2023-10-13T08:40:22;8.10;;;5.43;;
11066;SDS011;29763;50.904;5.530;2023-10-13T08:43:06;12.93;;;5.97;;
11066;SDS011;29763;50.904;5.530;2023-10-13T08:45:44;11.50;;;5.82;;
11066;SDS011;29763;50.904;5.530;2023-10-13T08:48:10;10.98;;;6.13;;
11066;SDS011;29763;50.904;5.530;2023-10-13T08:50:37;10.45;;;6.05;;
11066;SDS011;29763;50.904;5.530;2023-10-13T08:53:28;9.43;;;6.40;;
11066;SDS011;29763;50.904;5.530;2023-10-13T08:55:58;9.60;;;5.90;;
11066;SDS011;29763;50.904;5.530;2023-10-13T08:58:32;14.27;;;6.55;;
11066;SDS011;29763;50.904;5.530;2023-10-13T09:01:22;10.77;;;6.88;;
11066;SDS011;29763;50.904;5.530;2023-10-13T09:06:56;14.80;;;6.55;;
11066;SDS011;29763;50.904;5.530;2023-10-13T09:09:24;13.43;;;6.28;;
11066;SDS011;29763;50.904;5.530;2023-10-13T09:12:12;9.35;;;6.85;;
11066;SDS011;29763;50.904;5.530;2023-10-13T09:14:58;9.43;;;6.20;;
11066;SDS011;29763;50.904;5.530;2023-10-13T09:17:45;11.40;;;6.43;;
11066;SDS011;29763;50.904;5.530;2023-10-13T09:20:38;12.20;;;6.50;;
11066;SDS011;29763;50.904;5.530;2023-10-13T09:23:07;12.90;;;7.35;;
11066;SDS011;29763;50.904;5.530;2023-10-13T09:25:45;10.52;;;6.60;;
11066;SDS011;29763;50.904;5.530;2023-10-13T09:28:23;11.38;;;6.65;;
11066;SDS011;29763;50.904;5.530;2023-10-13T09:30:53;9.63;;;6.25;;
11066;SDS011;29763;50.904;5.530;2023-10-13T09:33:23;11.90;;;7.60;;
11066;SDS011;29763;50.904;5.530;2023-10-13T09:35:57;12.15;;;7.38;;
11066;SDS011;29763;50.904;5.530;2023-10-13T09:38:36;13.63;;;7.25;;
11066;SDS011;29763;50.904;5.530;2023-10-13T09:41:05;9.82;;;7.03;;
11066;SDS011;29763;50.904;5.530;2023-10-13T09:43:44;10.73;;;7.43;;
11066;SDS011;29763;50.904;5.530;2023-10-13T09:46:19;9.38;;;6.85;;
11066;SDS011;29763;50.904;5.530;2023-10-13T09:48:48;11.07;;;6.75;;
11066;SDS011;29763;50.904;5.530;2023-10-13T09:51:31;9.73;;;6.95;;
11066;SDS011;29763;50.904;5.530;2023-10-13T09:54:03;12.82;;;7.35;;
11066;SDS011;29763;50.904;5.530;2023-10-13T09:56:57;14.70;;;7.10;;
11066;SDS011;29763;50.904;5.530;2023-10-13T09:59:35;14.05;;;7.50;;
11066;SDS011;29763;50.904;5.530;2023-10-13T10:02:17;10.43;;;7.28;;
11066;SDS011;29763;50.904;5.530;2023-10-13T10:04:56;9.98;;;6.93;;
11066;SDS011;29763;50.904;5.530;2023-10-13T10:07:56;10.68;;;6.50;;
11066;SDS011;29763;50.904;5.530;2023-10-13T10:13:18;9.27;;;6.57;;
11066;SDS011;29763;50.904;5.530;2023-10-13T10:15:51;10.55;;;6.28;;
11066;SDS011;29763;50.904;5.530;2023-10-13T10:18:22;11.57;;;6.60;;
11066;SDS011;29763;50.904;5.530;2023-10-13T10:21:02;8.32;;;6.78;;
11066;SDS011;29763;50.904;5.530;2023-10-13T10:23:36;12.27;;;6.85;;
11066;SDS011;29763;50.904;5.530;2023-10-13T10:26:12;11.18;;;6.35;;
11066;SDS011;29763;50.904;5.530;2023-10-13T10:28:45;11.27;;;6.20;;
11066;SDS011;29763;50.904;5.530;2023-10-13T10:31:14;10.18;;;6.70;;
11066;SDS011;29763;50.904;5.530;2023-10-13T10:33:45;8.55;;;6.05;;
11066;SDS011;29763;50.904;5.530;2023-10-13T10:36:15;10.65;;;6.20;;
11066;SDS011;29763;50.904;5.530;2023-10-13T10:41:37;7.80;;;5.70;;
11066;SDS011;29763;50.904;5.530;2023-10-13T10:44:14;8.82;;;6.00;;
11066;SDS011;29763;50.904;5.530;2023-10-13T10:47:20;9.15;;;6.20;;
11066;SDS011;29763;50.904;5.530;2023-10-13T10:49:57;10.57;;;5.93;;
11066;SDS011;29763;50.904;5.530;2023-10-13T10:52:25;15.63;;;6.68;;
11066;SDS011;29763;50.904;5.530;2023-10-13T10:54:58;12.20;;;5.80;;
11066;SDS011;29763;50.904;5.530;2023-10-13T10:57:25;12.32;;;6.30;;
11066;SDS011;29763;50.904;5.530;2023-10-13T10:59:54;9.85;;;5.95;;
11066;SDS011;29763;50.904;5.530;2023-10-13T11:02:40;12.93;;;6.50;;
11066;SDS011;29763;50.904;5.530;2023-10-13T11:05:07;13.75;;;6.60;;
11066;SDS011;29763;50.904;5.530;2023-10-13T11:07:35;11.93;;;5.68;;
11066;SDS011;29763;50.904;5.530;2023-10-13T11:10:10;10.50;;;5.72;;
11066;SDS011;29763;50.904;5.530;2023-10-13T11:12:53;11.65;;;5.88;;
11066;SDS011;29763;50.904;5.530;2023-10-13T11:15:21;12.05;;;5.40;;
11066;SDS011;29763;50.904;5.530;2023-10-13T11:17:51;10.15;;;5.60;;
11066;SDS011;29763;50.904;5.530;2023-10-13T11:20:23;10.93;;;5.40;;
11066;SDS011;29763;50.904;5.530;2023-10-13T11:23:01;11.45;;;5.53;;
11066;SDS011;29763;50.904;5.530;2023-10-13T11:25:30;11.25;;;5.68;;
11066;SDS011;29763;50.904;5.530;2023-10-13T11:31:00;13.60;;;5.97;;
11066;SDS011;29763;50.904;5.530;2023-10-13T11:33:44;12.80;;;6.60;;
11066;SDS011;29763;50.904;5.530;2023-10-13T11:36:12;11.13;;;5.55;;
11066;SDS011;29763;50.904;5.530;2023-10-13T11:38:52;9.80;;;5.75;;
11066;SDS011;29763;50.904;5.530;2023-10-13T11:41:24;11.40;;;6.18;;
11066;SDS011;29763;50.904;5.530;2023-10-13T11:43:58;11.05;;;5.97;;
11066;SDS011;29763;50.904;5.530;2023-10-13T11:46:37;12.88;;;5.80;;
11066;SDS011;29763;50.904;5.530;2023-10-13T11:49:03;11.27;;;5.47;;
11066;SDS011;29763;50.904;5.530;2023-10-13T11:51:39;12.88;;;5.63;;
11066;SDS011;29763;50.904;5.530;2023-10-13T11:54:15;14.05;;;5.65;;
11066;SDS011;29763;50.904;5.530;2023-10-13T11:56:43;10.52;;;5.57;;
11066;SDS011;29763;50.904;5.530;2023-10-13T11:59:12;14.95;;;5.88;;
11066;SDS011;29763;50.904;5.530;2023-10-13T12:02:03;10.00;;;5.75;;
11066;SDS011;29763;50.904;5.530;2023-10-13T12:04:47;13.20;;;6.43;;
11066;SDS011;29763;50.904;5.530;2023-10-13T12:07:19;12.07;;;5.72;;
11066;SDS011;29763;50.904;5.530;2023-10-13T12:09:49;13.15;;;6.40;;
11066;SDS011;29763;50.904;5.530;2023-10-13T12:12:20;8.65;;;5.22;;
11066;SDS011;29763;50.904;5.530;2023-10-13T12:14:59;11.32;;;5.70;;
11066;SDS011;29763;50.904;5.530;2023-10-13T12:17:34;8.70;;;5.70;;
11066;SDS011;29763;50.904;5.530;2023-10-13T12:20:00;10.55;;;6.10;;
11066;SDS011;29763;50.904;5.530;2023-10-13T12:22:35;11.02;;;5.88;;
11066;SDS011;29763;50.904;5.530;2023-10-13T12:25:05;12.23;;;6.00;;
11066;SDS011;29763;50.904;5.530;2023-10-13T12:27:50;15.27;;;6.13;;
11066;SDS011;29763;50.904;5.530;2023-10-13T12:30:22;11.77;;;5.78;;
11066;SDS011;29763;50.904;5.530;2023-10-13T12:33:00;9.52;;;6.05;;
11066;SDS011;29763;50.904;5.530;2023-10-13T12:35:40;10.13;;;5.22;;
11066;SDS011;29763;50.904;5.530;2023-10-13T12:38:25;13.52;;;5.78;;
11066;SDS011;29763;50.904;5.530;2023-10-13T12:41:22;12.88;;;6.20;;
11066;SDS011;29763;50.904;5.530;2023-10-13T12:44:08;16.92;;;6.45;;
11066;SDS011;29763;50.904;5.530;2023-10-13T12:46:52;12.00;;;6.00;;
11066;SDS011;29763;50.904;5.530;2023-10-13T12:49:36;12.90;;;6.15;;
11066;SDS011;29763;50.904;5.530;2023-10-13T12:52:13;9.35;;;5.45;;
11066;SDS011;29763;50.904;5.530;2023-10-13T12:54:44;9.82;;;5.30;;
11066;SDS011;29763;50.904;5.530;2023-10-13T12:57:32;11.30;;;6.18;;
11066;SDS011;29763;50.904;5.530;2023-10-13T12:59:58;11.93;;;5.60;;
11066;SDS011;29763;50.904;5.530;2023-10-13T13:02:41;10.63;;;5.35;;
11066;SDS011;29763;50.904;5.530;2023-10-13T13:05:07;9.57;;;5.40;;
11066;SDS011;29763;50.904;5.530;2023-10-13T13:07:37;10.65;;;5.80;;
11066;SDS011;29763;50.904;5.530;2023-10-13T13:10:12;10.63;;;5.57;;
11066;SDS011;29763;50.904;5.530;2023-10-13T13:12:40;7.97;;;5.15;;
11066;SDS011;29763;50.904;5.530;2023-10-13T13:15:08;9.77;;;6.38;;
11066;SDS011;29763;50.904;5.530;2023-10-13T13:17:41;10.38;;;5.78;;
11066;SDS011;29763;50.904;5.530;2023-10-13T13:20:07;10.40;;;5.57;;
11066;SDS011;29763;50.904;5.530;2023-10-13T13:22:39;11.70;;;5.53;;
11066;SDS011;29763;50.904;5.530;2023-10-13T13:25:05;11.43;;;6.15;;
11066;SDS011;29763;50.904;5.530;2023-10-13T13:27:34;12.00;;;6.22;;
11066;SDS011;29763;50.904;5.530;2023-10-13T13:29:59;8.45;;;5.80;;
11066;SDS011;29763;50.904;5.530;2023-10-13T13:32:25;11.43;;;5.80;;
11066;SDS011;29763;50.904;5.530;2023-10-13T13:34:53;12.38;;;5.40;;
11066;SDS011;29763;50.904;5.530;2023-10-13T13:37:20;10.73;;;6.05;;
11066;SDS011;29763;50.904;5.530;2023-10-13T13:39:46;10.32;;;5.57;;
11066;SDS011;29763;50.904;5.530;2023-10-13T13:42:12;9.57;;;5.75;;
11066;SDS011;29763;50.904;5.530;2023-10-13T13:44:43;8.15;;;5.70;;
11066;SDS011;29763;50.904;5.530;2023-10-13T13:47:12;8.13;;;5.50;;
11066;SDS011;29763;50.904;5.530;2023-10-13T13:49:39;9.77;;;5.57;;
11066;SDS011;29763;50.904;5.530;2023-10-13T13:52:12;11.25;;;6.05;;
11066;SDS011;29763;50.904;5.530;2023-10-13T13:55:02;11.35;;;5.90;;
11066;SDS011;29763;50.904;5.530;2023-10-13T13:57:28;11.93;;;5.90;;
11066;SDS011;29763;50.904;5.530;2023-10-13T13:59:55;11.40;;;6.47;;
11066;SDS011;29763;50.904;5.530;2023-10-13T14:02:22;10.80;;;6.00;;
11066;SDS011;29763;50.904;5.530;2023-10-13T14:04:48;8.73;;;5.60;;
11066;SDS011;29763;50.904;5.530;2023-10-13T14:07:18;12.05;;;6.80;;
11066;SDS011;29763;50.904;5.530;2023-10-13T14:09:49;7.65;;;5.20;;
11066;SDS011;29763;50.904;5.530;2023-10-13T14:12:33;9.63;;;5.78;;
11066;SDS011;29763;50.904;5.530;2023-10-13T14:15:15;8.82;;;5.78;;
11066;SDS011;29763;50.904;5.530;2023-10-13T14:17:50;9.15;;;5.93;;
11066;SDS011;29763;50.904;5.530;2023-10-13T14:20:15;8.18;;;5.70;;
11066;SDS011;29763;50.904;5.530;2023-10-13T14:22:45;9.82;;;6.35;;
11066;SDS011;29763;50.904;5.530;2023-10-13T14:25:14;10.35;;;6.55;;
11066;SDS011;29763;50.904;5.530;2023-10-13T14:27:41;8.25;;;6.03;;
11066;SDS011;29763;50.904;5.530;2023-10-13T14:30:07;10.38;;;6.03;;
11066;SDS011;29763;50.904;5.530;2023-10-13T14:32:33;11.93;;;5.70;;
11066;SDS011;29763;50.904;5.530;2023-10-13T14:35:05;8.98;;;5.75;;
11066;SDS011;29763;50.904;5.530;2023-10-13T14:37:39;10.38;;;5.43;;
11066;SDS011;29763;50.904;5.530;2023-10-13T14:40:05;11.68;;;5.88;;
11066;SDS011;29763;50.904;5.530;2023-10-13T14:42:38;8.73;;;5.53;;
11066;SDS011;29763;50.904;5.530;2023-10-13T14:45:08;10.00;;;5.78;;
11066;SDS011;29763;50.904;5.530;2023-10-13T14:47:43;9.90;;;6.03;;
11066;SDS011;29763;50.904;5.530;2023-10-13T14:50:10;8.93;;;5.60;;
11066;SDS011;29763;50.904;5.530;2023-10-13T14:52:55;7.82;;;5.68;;
11066;SDS011;29763;50.904;5.530;2023-10-13T14:55:22;6.97;;;5.32;;
11066;SDS011;29763;50.904;5.530;2023-10-13T14:58:03;12.32;;;5.72;;
11066;SDS011;29763;50.904;5.530;2023-10-13T15:00:37;9.20;;;5.70;;
11066;SDS011;29763;50.904;5.530;2023-10-13T15:03:03;7.53;;;5.50;;
11066;SDS011;29763;50.904;5.530;2023-10-13T15:05:31;9.38;;;5.35;;
11066;SDS011;29763;50.904;5.530;2023-10-13T15:08:00;8.57;;;5.38;;
11066;SDS011;29763;50.904;5.530;2023-10-13T15:10:28;9.98;;;5.60;;
11066;SDS011;29763;50.904;5.530;2023-10-13T15:12:54;9.93;;;5.43;;
11066;SDS011;29763;50.904;5.530;2023-10-13T15:15:21;7.63;;;5.68;;
11066;SDS011;29763;50.904;5.530;2023-10-13T15:17:49;7.72;;;5.68;;
11066;SDS011;29763;50.904;5.530;2023-10-13T15:20:15;7.93;;;5.72;;
11066;SDS011;29763;50.904;5.530;2023-10-13T15:22:44;8.57;;;6.00;;
11066;SDS011;29763;50.904;5.530;2023-10-13T15:25:12;9.27;;;6.25;;
11066;SDS011;29763;50.904;5.530;2023-10-13T15:28:09;9.30;;;6.20;;
11066;SDS011;29763;50.904;5.530;2023-10-13T15:30:34;8.75;;;5.70;;
11066;SDS011;29763;50.904;5.530;2023-10-13T15:33:10;8.80;;;5.97;;
11066;SDS011;29763;50.904;5.530;2023-10-13T15:35:40;8.25;;;5.82;;
11066;SDS011;29763;50.904;5.530;2023-10-13T15:38:11;8.18;;;5.82;;
11066;SDS011;29763;50.904;5.530;2023-10-13T15:40:43;7.63;;;5.25;;
11066;SDS011;29763;50.904;5.530;2023-10-13T15:43:10;12.32;;;6.10;;